createdAt,value
2022-09-23T00:00:47.638Z,101007.72
2022-09-23T00:03:16.151Z,101008.88
2022-09-23T00:05:43.262Z,101009.41
2022-09-23T00:08:11.707Z,101007.47
2022-09-23T00:10:39.800Z,101002.94
2022-09-23T00:13:06.874Z,101004.69
2022-09-23T00:15:39.017Z,101000.03
2022-09-23T00:18:05.906Z,100998.28
2022-09-23T00:20:36.416Z,101002.09
2022-09-23T00:23:03.840Z,100994.72
2022-09-23T00:25:30.551Z,100993.84
2022-09-23T00:27:57.398Z,100988.50
2022-09-23T00:30:24.146Z,100982.41
2022-09-23T00:32:52.940Z,100984.44
2022-09-23T00:35:20.195Z,100974.09
2022-09-23T00:37:46.973Z,100981.06
2022-09-23T00:40:13.926Z,100971.13
2022-09-23T00:42:49.152Z,100979.19
2022-09-23T00:45:16.824Z,100973.06
2022-09-23T00:48:01.476Z,100976.97
2022-09-23T00:50:36.495Z,100973.50
2022-09-23T00:53:07.036Z,100977.25
2022-09-23T00:55:55.355Z,100978.94
2022-09-23T00:58:31.287Z,100975.44
2022-09-23T01:01:02.330Z,100981.50
2022-09-23T01:03:29.357Z,100977.53
2022-09-23T01:05:57.334Z,100968.59
2022-09-23T01:08:26.774Z,100973.38
2022-09-23T01:11:24.411Z,100969.91
2022-09-23T01:13:51.116Z,100983.63
2022-09-23T01:16:34.201Z,100968.03
2022-09-23T01:19:23.642Z,100978.59
2022-09-23T01:22:04.974Z,100964.66
2022-09-23T01:25:01.177Z,100973.63
2022-09-23T01:27:52.860Z,100968.56
2022-09-23T01:30:45.511Z,100969.69
2022-09-23T01:33:30.547Z,100972.66
2022-09-23T01:36:12.382Z,100975.28
2022-09-23T01:38:46.575Z,100972.28
2022-09-23T01:41:25.340Z,100965.78
2022-09-23T01:44:10.501Z,100972.00
2022-09-23T01:46:48.443Z,100976.91
2022-09-23T01:49:44.633Z,100970.78
2022-09-23T01:52:38.375Z,100974.03
2022-09-23T01:55:13.368Z,100979.47
2022-09-23T01:58:04.926Z,100979.81
2022-09-23T02:00:36.760Z,100974.78
2022-09-23T02:03:44.343Z,100977.78
2022-09-23T02:06:38.988Z,100972.53
2022-09-23T02:09:12.623Z,100964.50
2022-09-23T02:11:45.231Z,100971.63
2022-09-23T02:14:33.499Z,100970.88
2022-09-23T02:17:08.510Z,100969.09
2022-09-23T02:19:48.996Z,100960.34
2022-09-23T02:22:21.495Z,100970.91
2022-09-23T02:24:49.264Z,100966.72
2022-09-23T02:27:57.629Z,100964.31
2022-09-23T02:30:30.074Z,100957.38
2022-09-23T02:33:07.863Z,100957.13
2022-09-23T02:36:03.884Z,100966.88
2022-09-23T02:38:39.358Z,100967.09
2022-09-23T02:41:22.509Z,100968.41
2022-09-23T02:43:59.924Z,100956.63
2022-09-23T02:46:28.367Z,100965.03
2022-09-23T02:49:00.939Z,100954.19
2022-09-23T02:51:34.600Z,100957.81
2022-09-23T02:54:03.538Z,100957.34
2022-09-23T02:56:30.206Z,100962.50
2022-09-23T02:58:57.061Z,100965.16
2022-09-23T03:01:39.315Z,100954.44
2022-09-23T03:04:27.067Z,100959.13
2022-09-23T03:07:18.027Z,100952.19
2022-09-23T03:10:09.837Z,100946.22
2022-09-23T03:12:47.749Z,100950.06
2022-09-23T03:15:32.198Z,100955.34
2022-09-23T03:18:01.974Z,100949.59
2022-09-23T03:20:38.475Z,100948.16
2022-09-23T03:23:09.280Z,100949.81
2022-09-23T03:25:40.188Z,100953.41
2022-09-23T03:28:08.761Z,100960.00
2022-09-23T03:30:36.776Z,100948.34
2022-09-23T03:33:07.077Z,100949.19
2022-09-23T03:35:58.313Z,100941.28
2022-09-23T03:38:30.348Z,100935.00
2022-09-23T03:41:02.934Z,100941.84
2022-09-23T03:43:31.209Z,100936.44
2022-09-23T03:45:58.952Z,100935.50
2022-09-23T03:48:25.794Z,100939.88
2022-09-23T03:50:52.607Z,100935.16
2022-09-23T03:53:21.085Z,100941.16
2022-09-23T03:55:48.340Z,100939.50
2022-09-23T03:58:15.939Z,100939.16
2022-09-23T04:00:43.324Z,100941.06
2022-09-23T04:03:11.841Z,100945.63
2022-09-23T04:05:38.765Z,100941.94
2022-09-23T04:08:05.594Z,100942.19
2022-09-23T04:10:32.227Z,100937.13
2022-09-23T04:12:58.877Z,100939.53
2022-09-23T04:15:25.577Z,100945.28
2022-09-23T04:17:52.297Z,100942.19
2022-09-23T04:20:19.336Z,100945.91
2022-09-23T04:22:46.058Z,100941.22
2022-09-23T04:25:12.828Z,100940.50
2022-09-23T04:27:39.529Z,100947.56
2022-09-23T04:30:07.084Z,100939.19
2022-09-23T04:32:33.970Z,100935.56
2022-09-23T04:35:00.680Z,100937.63
2022-09-23T04:37:27.532Z,100935.44
2022-09-23T04:39:54.503Z,100943.63
2022-09-23T04:42:21.245Z,100946.63
2022-09-23T04:44:47.912Z,100940.50
2022-09-23T04:47:14.595Z,100937.13
2022-09-23T04:49:41.240Z,100932.22
2022-09-23T04:52:08.197Z,100930.91
2022-09-23T04:54:34.968Z,100929.97
2022-09-23T04:57:01.752Z,100935.81
2022-09-23T04:59:28.423Z,100942.19
2022-09-23T05:01:55.501Z,100945.19
2022-09-23T05:04:22.853Z,100942.66
2022-09-23T05:06:49.496Z,100947.69
2022-09-23T05:09:17.422Z,100951.06
2022-09-23T05:11:45.486Z,100959.00
2022-09-23T05:14:12.333Z,100952.63
2022-09-23T05:16:39.017Z,100953.06
2022-09-23T05:19:06.082Z,100957.66
2022-09-23T05:21:32.926Z,100962.56
2022-09-23T05:24:00.860Z,100959.66
2022-09-23T05:26:32.295Z,100965.16
2022-09-23T05:28:59.866Z,100958.44
2022-09-23T05:31:29.001Z,100960.09
2022-09-23T05:33:58.718Z,100960.44
2022-09-23T05:36:26.846Z,100962.91
2022-09-23T05:38:54.695Z,100959.78
2022-09-23T05:41:25.373Z,100962.44
2022-09-23T05:43:53.669Z,100967.72
2022-09-23T05:46:23.387Z,100968.06
2022-09-23T05:48:50.814Z,100978.38
2022-09-23T05:51:30.183Z,100975.72
2022-09-23T05:54:03.003Z,100977.19
2022-09-23T05:56:30.768Z,100975.00
2022-09-23T05:58:59.065Z,100970.16
2022-09-23T06:01:28.402Z,100967.50
2022-09-23T06:03:59.740Z,100980.38
2022-09-23T06:06:30.023Z,100965.78
2022-09-23T06:08:58.587Z,100965.97
2022-09-23T06:11:25.356Z,100968.81
2022-09-23T06:13:56.997Z,100974.72
2022-09-23T06:16:23.683Z,100979.59
2022-09-23T06:18:50.317Z,100972.06
2022-09-23T06:21:18.097Z,100971.78
2022-09-23T06:23:45.843Z,100972.13
2022-09-23T06:26:14.879Z,100978.13
2022-09-23T06:28:52.060Z,100977.78
2022-09-23T06:31:19.860Z,100969.06
2022-09-23T06:33:46.962Z,100963.16
2022-09-23T06:36:28.820Z,100973.66
2022-09-23T06:39:02.360Z,100970.19
2022-09-23T06:41:29.082Z,100972.44
2022-09-23T06:43:58.060Z,100974.25
2022-09-23T06:46:24.998Z,100978.31
2022-09-23T06:48:51.656Z,100976.09
2022-09-23T06:51:21.798Z,100981.13
2022-09-23T06:53:49.904Z,100980.41
2022-09-23T06:56:19.955Z,100983.31
2022-09-23T06:58:46.877Z,100982.88
2022-09-23T07:01:17.934Z,100986.91
2022-09-23T07:03:47.283Z,100985.94
2022-09-23T07:06:13.913Z,100987.16
2022-09-23T07:08:44.891Z,100987.03
2022-09-23T07:11:13.155Z,100992.88
2022-09-23T07:13:41.506Z,100985.28
2022-09-23T07:16:10.072Z,100986.88
2022-09-23T07:18:37.634Z,100994.19
2022-09-23T07:21:11.488Z,100984.78
2022-09-23T07:23:38.859Z,100977.72
2022-09-23T07:26:07.814Z,100978.94
2022-09-23T07:28:37.101Z,100982.66
2022-09-23T07:31:07.682Z,100980.91
2022-09-23T07:33:36.448Z,100986.59
2022-09-23T07:36:08.764Z,100983.06
2022-09-23T07:38:37.415Z,100981.53
2022-09-23T07:41:08.962Z,100978.72
2022-09-23T07:43:35.993Z,100980.16
2022-09-23T07:46:08.282Z,100986.59
2022-09-23T07:48:37.169Z,100983.22
2022-09-23T07:51:12.759Z,100976.94
2022-09-23T07:53:39.663Z,100986.06
2022-09-23T07:56:06.671Z,100985.28
2022-09-23T07:58:34.686Z,100987.84
2022-09-23T08:01:09.039Z,100991.72
2022-09-23T08:03:36.409Z,100991.59
2022-09-23T08:06:05.368Z,100990.78
2022-09-23T08:08:32.129Z,100988.16
2022-09-23T08:11:04.232Z,100990.53
2022-09-23T08:13:31.007Z,100991.72
2022-09-23T08:15:58.360Z,100984.91
2022-09-23T08:18:25.689Z,100979.59
2022-09-23T08:20:52.654Z,100981.63
2022-09-23T08:23:20.466Z,100977.28
2022-09-23T08:25:48.103Z,100978.13
2022-09-23T08:28:18.776Z,100968.94
2022-09-23T08:30:48.822Z,100971.66
2022-09-23T08:33:20.937Z,100960.47
2022-09-23T08:35:50.378Z,100959.13
2022-09-23T08:38:17.315Z,100965.16
2022-09-23T08:40:48.116Z,100959.94
2022-09-23T08:43:24.364Z,100960.63
2022-09-23T08:45:52.134Z,100965.78
2022-09-23T08:48:30.615Z,100950.75
2022-09-23T08:51:11.452Z,100955.44
2022-09-23T08:53:38.771Z,100956.91
2022-09-23T08:56:13.254Z,100951.75
2022-09-23T08:59:01.951Z,100955.06
2022-09-23T09:01:40.665Z,100954.00
2022-09-23T09:04:44.761Z,100952.66
2022-09-23T09:07:37.910Z,100952.63
2022-09-23T09:10:19.312Z,100950.47
2022-09-23T09:13:07.627Z,100950.72
2022-09-23T09:15:44.041Z,100941.72
2022-09-23T09:18:21.605Z,100953.19
2022-09-23T09:20:57.262Z,100944.94
2022-09-23T09:23:33.951Z,100936.97
2022-09-23T09:26:06.009Z,100938.78
2022-09-23T09:28:42.440Z,100939.38
2022-09-23T09:31:28.236Z,100940.91
2022-09-23T09:34:22.335Z,100936.06
2022-09-23T09:37:11.466Z,100934.69
2022-09-23T09:39:38.587Z,100940.81
2022-09-23T09:42:06.522Z,100934.81
2022-09-23T09:44:48.064Z,100939.44
2022-09-23T09:47:36.070Z,100946.16
2022-09-23T09:50:19.205Z,100942.91
2022-09-23T09:52:45.981Z,100932.13
2022-09-23T09:55:12.679Z,100936.59
2022-09-23T09:57:46.394Z,100935.25
2022-09-23T10:00:38.467Z,100926.47
2022-09-23T10:03:14.167Z,100920.75
2022-09-23T10:05:44.864Z,100923.34
2022-09-23T10:08:37.706Z,100920.59
2022-09-23T10:11:13.004Z,100921.00
2022-09-23T10:13:39.716Z,100919.44
2022-09-23T10:16:06.647Z,100920.75
2022-09-23T10:18:37.452Z,100925.75
2022-09-23T10:21:16.261Z,100920.81
2022-09-23T10:23:45.760Z,100918.81
2022-09-23T10:26:17.483Z,100924.41
2022-09-23T10:28:50.562Z,100909.97
2022-09-23T10:31:25.581Z,100917.63
2022-09-23T10:34:00.524Z,100914.66
2022-09-23T10:36:32.827Z,100908.56
2022-09-23T10:39:23.665Z,100906.63
2022-09-23T10:42:23.583Z,100898.25
2022-09-23T10:45:38.591Z,100891.13
2022-09-23T10:48:22.723Z,100888.72
2022-09-23T10:50:52.967Z,100883.88
2022-09-23T10:53:28.641Z,100888.13
2022-09-23T10:56:09.566Z,100890.69
2022-09-23T10:59:00.837Z,100890.31
2022-09-23T11:01:50.789Z,100885.47
2022-09-23T11:04:42.473Z,100884.69
2022-09-23T11:07:37.357Z,100876.06
2022-09-23T11:10:52.443Z,100870.78
2022-09-23T11:13:43.225Z,100875.63
2022-09-23T11:16:39.085Z,100855.56
2022-09-23T11:19:18.405Z,100860.06
2022-09-23T11:22:10.291Z,100856.19
2022-09-23T11:25:16.915Z,100852.25
2022-09-23T11:28:18.004Z,100847.88
2022-09-23T11:31:00.129Z,100840.22
2022-09-23T11:33:38.776Z,100842.44
2022-09-23T11:36:10.658Z,100837.63
2022-09-23T11:38:48.843Z,100835.44
2022-09-23T11:41:25.944Z,100838.16
2022-09-23T11:44:39.238Z,100828.38
2022-09-23T11:47:16.676Z,100825.00
2022-09-23T11:49:51.661Z,100818.59
2022-09-23T11:52:45.198Z,100825.75
2022-09-23T11:55:22.180Z,100829.97
2022-09-23T11:58:25.771Z,100827.94
2022-09-23T12:01:01.411Z,100824.38
2022-09-23T12:03:44.939Z,100812.28
2022-09-23T12:06:36.942Z,100806.06
2022-09-23T12:09:15.572Z,100807.31
2022-09-23T12:12:27.200Z,100810.03
2022-09-23T12:14:54.093Z,100808.41
2022-09-23T12:17:27.568Z,100800.53
2022-09-23T12:20:12.036Z,100800.47
2022-09-23T12:22:52.779Z,100801.28
2022-09-23T12:25:52.215Z,100798.59
2022-09-23T12:28:29.754Z,100795.34
2022-09-23T12:31:00.319Z,100795.91
2022-09-23T12:33:35.345Z,100786.66
2022-09-23T12:36:05.137Z,100788.97
2022-09-23T12:38:46.628Z,100784.59
2022-09-23T12:41:26.894Z,100791.91
2022-09-23T12:43:56.089Z,100787.13
2022-09-23T12:46:27.483Z,100786.53
2022-09-23T12:49:00.864Z,100785.75
2022-09-23T12:51:34.818Z,100777.97
2022-09-23T12:54:04.490Z,100772.84
2022-09-23T12:56:34.038Z,100769.25
2022-09-23T12:59:11.452Z,100780.94
2022-09-23T13:01:39.047Z,100768.66
2022-09-23T13:04:24.627Z,100768.16
2022-09-23T13:07:08.978Z,100762.00
2022-09-23T13:09:42.274Z,100755.28
2022-09-23T13:12:19.660Z,100758.97
2022-09-23T13:14:50.694Z,100751.50
2022-09-23T13:17:37.059Z,100748.16
2022-09-23T13:20:03.675Z,100747.41
2022-09-23T13:22:59.923Z,100740.56
2022-09-23T13:25:29.480Z,100742.16
2022-09-23T13:28:00.719Z,100730.94
2022-09-23T13:30:27.983Z,100726.94
2022-09-23T13:33:14.167Z,100723.41
2022-09-23T13:35:46.854Z,100717.66
2022-09-23T13:38:29.638Z,100721.97
2022-09-23T13:41:07.905Z,100720.06
2022-09-23T13:43:41.502Z,100712.41
2022-09-23T13:46:16.725Z,100711.44
2022-09-23T13:48:46.131Z,100707.72
2022-09-23T13:51:30.292Z,100712.06
2022-09-23T13:53:59.384Z,100712.66
2022-09-23T13:56:28.641Z,100708.84
2022-09-23T13:59:16.268Z,100711.41
2022-09-23T14:01:43.102Z,100707.56
2022-09-23T14:04:26.100Z,100702.81
2022-09-23T14:06:54.381Z,100697.88
2022-09-23T14:09:24.934Z,100709.94
2022-09-23T14:11:52.239Z,100706.22
2022-09-23T14:14:20.638Z,100709.31
2022-09-23T14:16:50.596Z,100705.66
2022-09-23T14:19:19.751Z,100704.75
2022-09-23T14:21:54.944Z,100701.13
2022-09-23T14:24:31.808Z,100695.25
2022-09-23T14:27:12.958Z,100700.63
2022-09-23T14:29:45.246Z,100693.63
2022-09-23T14:32:23.125Z,100694.38
2022-09-23T14:35:03.611Z,100694.56
2022-09-23T14:37:55.254Z,100693.94
2022-09-23T14:40:28.672Z,100687.47
2022-09-23T14:42:55.592Z,100696.69
2022-09-23T14:45:27.202Z,100694.88
2022-09-23T14:47:59.418Z,100691.53
2022-09-23T14:50:47.329Z,100696.13
2022-09-23T14:53:17.145Z,100690.50
2022-09-23T14:55:44.799Z,100681.81
2022-09-23T14:58:17.259Z,100687.56
2022-09-23T15:01:02.865Z,100687.09
2022-09-23T15:03:29.912Z,100681.69
2022-09-23T15:06:06.385Z,100683.63
2022-09-23T15:08:36.013Z,100687.66
2022-09-23T15:11:07.829Z,100680.13
2022-09-23T15:13:45.871Z,100684.81
2022-09-23T15:16:15.932Z,100681.41
2022-09-23T15:18:46.331Z,100679.03
2022-09-23T15:21:16.632Z,100676.47
2022-09-23T15:23:43.370Z,100681.75
2022-09-23T15:26:25.041Z,100676.94
2022-09-23T15:28:54.138Z,100672.34
2022-09-23T15:31:23.048Z,100667.19
2022-09-23T15:33:51.192Z,100678.09
2022-09-23T15:36:21.214Z,100671.88
2022-09-23T15:38:48.480Z,100674.13
2022-09-23T15:41:15.873Z,100669.16
2022-09-23T15:43:42.942Z,100667.56
2022-09-23T15:46:29.927Z,100672.94
2022-09-23T15:49:08.914Z,100673.13
2022-09-23T15:51:37.363Z,100665.69
2022-09-23T15:54:06.150Z,100660.06
2022-09-23T15:56:33.456Z,100663.72
2022-09-23T15:59:00.857Z,100668.16
2022-09-23T16:01:30.219Z,100663.53
2022-09-23T16:03:57.058Z,100663.09
2022-09-23T16:06:26.945Z,100658.47
2022-09-23T16:08:54.255Z,100665.03
2022-09-23T16:11:29.978Z,100664.13
2022-09-23T16:13:56.818Z,100668.38
2022-09-23T16:16:23.773Z,100666.34
2022-09-23T16:18:53.162Z,100662.09
2022-09-23T16:21:26.343Z,100664.13
2022-09-23T16:23:54.529Z,100663.13
2022-09-23T16:26:30.761Z,100665.16
2022-09-23T16:28:58.641Z,100658.50
2022-09-23T16:31:29.710Z,100659.06
2022-09-23T16:33:56.566Z,100665.66
2022-09-23T16:36:23.249Z,100672.56
2022-09-23T16:38:50.083Z,100666.34
2022-09-23T16:41:16.796Z,100666.13
2022-09-23T16:43:43.442Z,100653.19
2022-09-23T16:46:15.699Z,100655.09
2022-09-23T16:48:47.039Z,100656.16
2022-09-23T16:51:20.381Z,100660.44
2022-09-23T16:53:49.469Z,100659.72
2022-09-23T16:56:18.332Z,100663.84
2022-09-23T16:58:45.140Z,100662.06
2022-09-23T17:01:33.891Z,100669.47
2022-09-23T17:04:01.039Z,100666.97
2022-09-23T17:06:28.009Z,100669.53
2022-09-23T17:08:54.821Z,100669.41
2022-09-23T17:11:22.013Z,100672.44
2022-09-23T17:13:49.654Z,100665.59
2022-09-23T17:16:30.792Z,100668.97
2022-09-23T17:18:58.032Z,100663.13
2022-09-23T17:21:27.322Z,100661.66
2022-09-23T17:23:54.667Z,100666.81
2022-09-23T17:26:23.357Z,100669.47
2022-09-23T17:28:51.422Z,100667.78
2022-09-23T17:31:18.776Z,100667.75
2022-09-23T17:33:45.528Z,100677.06
2022-09-23T17:36:13.655Z,100681.69
2022-09-23T17:38:43.552Z,100677.50
2022-09-23T17:41:10.213Z,100675.31
2022-09-23T17:43:38.451Z,100676.97
2022-09-23T17:46:10.862Z,100671.13
2022-09-23T17:48:41.376Z,100675.97
2022-09-23T17:51:14.278Z,100677.94
2022-09-23T17:53:43.599Z,100671.53
2022-09-23T17:56:26.334Z,100679.69
2022-09-23T17:58:53.876Z,100678.19
2022-09-23T18:01:25.571Z,100682.78
2022-09-23T18:04:00.386Z,100677.06
2022-09-23T18:06:32.532Z,100675.22
2022-09-23T18:09:01.632Z,100680.97
2022-09-23T18:11:29.833Z,100679.59
2022-09-23T18:14:08.262Z,100674.38
2022-09-23T18:16:38.057Z,100672.16
2022-09-23T18:19:06.176Z,100675.69
2022-09-23T18:21:40.880Z,100683.78
2022-09-23T18:26:59.536Z,100688.28
2022-09-23T18:29:26.303Z,100680.47
2022-09-23T18:31:53.052Z,100681.91
2022-09-23T18:34:20.468Z,100686.03
2022-09-23T18:36:47.181Z,100689.25
2022-09-23T18:39:14.276Z,100683.03
2022-09-23T18:41:41.286Z,100681.38
2022-09-23T18:44:08.562Z,100688.13
2022-09-23T18:46:35.617Z,100682.81
2022-09-23T18:49:20.953Z,100678.72
2022-09-23T18:51:54.825Z,100682.66
2022-09-23T18:54:23.352Z,100684.09
2022-09-23T18:56:52.619Z,100682.06
2022-09-23T18:59:23.737Z,100682.75
2022-09-23T19:01:51.049Z,100681.16
2022-09-23T19:04:20.412Z,100675.22
2022-09-23T19:06:47.990Z,100670.88
2022-09-23T19:09:15.866Z,100674.03
2022-09-23T19:11:43.369Z,100674.25
2022-09-23T19:14:11.526Z,100683.81
2022-09-23T19:16:39.716Z,100685.25
2022-09-23T19:19:06.746Z,100679.09
2022-09-23T19:21:34.165Z,100688.88
2022-09-23T19:24:04.415Z,100678.88
2022-09-23T19:26:38.418Z,100668.03
2022-09-23T19:29:08.163Z,100674.94
2022-09-23T19:31:40.033Z,100674.19
2022-09-23T19:34:11.485Z,100684.50
2022-09-23T19:36:40.360Z,100685.63
2022-09-23T19:39:12.050Z,100690.44
2022-09-23T19:41:38.686Z,100677.97
2022-09-23T19:44:07.394Z,100673.47
2022-09-23T19:46:39.398Z,100680.41
2022-09-23T19:49:07.165Z,100672.13
2022-09-23T19:51:34.599Z,100678.50
2022-09-23T19:54:03.526Z,100672.00
2022-09-23T19:56:31.965Z,100678.56
2022-09-23T19:58:59.758Z,100675.81
2022-09-23T20:01:28.592Z,100678.94
2022-09-23T20:03:55.363Z,100690.94
2022-09-23T20:06:22.610Z,100685.78
2022-09-23T20:08:50.074Z,100685.47
2022-09-23T20:11:22.572Z,100685.19
2022-09-23T20:13:58.584Z,100680.50
2022-09-23T20:16:25.911Z,100683.44
2022-09-23T20:18:52.890Z,100682.31
2022-09-23T20:21:19.575Z,100681.81
2022-09-23T20:23:46.303Z,100683.94
2022-09-23T20:26:32.031Z,100680.91
2022-09-23T20:29:02.377Z,100680.78
2022-09-23T20:31:29.171Z,100675.63
2022-09-23T20:33:58.498Z,100678.00
2022-09-23T20:36:27.317Z,100682.47
2022-09-23T20:38:59.706Z,100674.38
2022-09-23T20:41:27.402Z,100677.97
2022-09-23T20:43:55.257Z,100671.41
2022-09-23T20:46:24.788Z,100671.63
2022-09-23T20:48:51.549Z,100673.16
2022-09-23T20:51:18.205Z,100675.13
2022-09-23T20:53:45.942Z,100670.78
2022-09-23T20:56:14.884Z,100664.41
2022-09-23T20:58:41.472Z,100664.41
2022-09-23T21:01:10.795Z,100668.31
2022-09-23T21:03:40.599Z,100675.84
2022-09-23T21:06:09.227Z,100677.53
2022-09-23T21:08:37.387Z,100674.72
2022-09-23T21:11:07.880Z,100673.84
2022-09-23T21:13:34.653Z,100677.09
2022-09-23T21:16:10.654Z,100675.81
2022-09-23T21:18:38.748Z,100673.31
2022-09-23T21:21:06.324Z,100676.94
2022-09-23T21:23:35.101Z,100668.31
2022-09-23T21:26:11.014Z,100669.28
2022-09-23T21:28:43.225Z,100668.28
2022-09-23T21:31:22.727Z,100673.03
2022-09-23T21:33:59.162Z,100668.47
2022-09-23T21:36:28.154Z,100673.19
2022-09-23T21:38:58.230Z,100669.81
2022-09-23T21:41:25.154Z,100668.31
2022-09-23T21:43:51.824Z,100664.81
2022-09-23T21:46:20.892Z,100663.44
2022-09-23T21:48:57.420Z,100659.66
2022-09-23T21:51:34.167Z,100677.53
2022-09-23T21:54:01.183Z,100669.16
2022-09-23T21:56:30.433Z,100672.38
2022-09-23T21:58:59.881Z,100679.16
2022-09-23T22:01:36.442Z,100679.88
2022-09-23T22:04:13.302Z,100679.31
2022-09-23T22:06:40.546Z,100674.16
2022-09-23T22:09:19.132Z,100675.56
2022-09-23T22:12:04.484Z,100680.41
2022-09-23T22:14:31.491Z,100680.41
2022-09-23T22:17:03.701Z,100680.84
2022-09-23T22:19:35.537Z,100674.00
2022-09-23T22:22:07.755Z,100682.25
2022-09-23T22:24:34.454Z,100683.91
2022-09-23T22:27:01.100Z,100678.34
2022-09-23T22:29:46.352Z,100671.06
2022-09-23T22:32:31.596Z,100680.28
2022-09-23T22:34:58.337Z,100680.84
2022-09-23T22:37:34.105Z,100666.34
2022-09-23T22:40:09.560Z,100663.56
2022-09-23T22:42:37.253Z,100665.09
2022-09-23T22:45:05.825Z,100669.25
2022-09-23T22:47:37.802Z,100667.59
2022-09-23T22:50:09.755Z,100673.84
2022-09-23T22:52:36.751Z,100663.00
2022-09-23T22:55:04.846Z,100671.34
2022-09-23T22:57:31.472Z,100666.03
2022-09-23T22:59:58.192Z,100669.94
2022-09-23T23:02:24.960Z,100661.84
2022-09-23T23:04:51.806Z,100666.31
2022-09-23T23:07:21.323Z,100665.44
2022-09-23T23:09:50.479Z,100660.69
2022-09-23T23:12:18.960Z,100661.09
2022-09-23T23:14:46.577Z,100667.75
2022-09-23T23:17:13.350Z,100654.69
2022-09-23T23:19:40.098Z,100657.88
2022-09-23T23:22:06.816Z,100657.22
2022-09-23T23:24:33.476Z,100654.09
2022-09-23T23:27:00.148Z,100653.16
2022-09-23T23:29:27.918Z,100649.19
2022-09-23T23:31:54.757Z,100647.09
2022-09-23T23:34:22.056Z,100662.84
2022-09-23T23:36:55.116Z,100657.28
2022-09-23T23:39:23.891Z,100646.16
2022-09-23T23:41:55.176Z,100647.97
2022-09-23T23:44:23.621Z,100649.22
2022-09-23T23:46:50.513Z,100651.72
2022-09-23T23:49:17.440Z,100646.56
2022-09-23T23:51:44.206Z,100644.59
2022-09-23T23:54:15.222Z,100634.56
2022-09-23T23:56:42.064Z,100644.31
2022-09-23T23:59:08.682Z,100639.03
